sensor_id;sensor_type;location;lat;lon;timestamp;P1;durP1;ratioP1;P2;durP2;ratioP2
77423;SDS011;66494;47.172;14.678;2023-08-06T00:00:04;1.42;;;0.30;;
77423;SDS011;66494;47.172;14.678;2023-08-06T00:01:04;1.48;;;0.20;;
77423;SDS011;66494;47.172;14.678;2023-08-06T00:02:04;3.30;;;0.20;;
77423;SDS011;66494;47.172;14.678;2023-08-06T00:03:05;2.90;;;0.60;;
77423;SDS011;66494;47.172;14.678;2023-08-06T00:04:05;3.33;;;1.30;;
77423;SDS011;66494;47.172;14.678;2023-08-06T00:05:05;4.75;;;1.40;;
77423;SDS011;66494;47.172;14.678;2023-08-06T00:06:05;5.43;;;1.48;;
77423;SDS011;66494;47.172;14.678;2023-08-06T00:07:06;2.53;;;0.73;;
77423;SDS011;66494;47.172;14.678;2023-08-06T00:08:06;0.93;;;0.52;;
77423;SDS011;66494;47.172;14.678;2023-08-06T00:09:07;0.85;;;0.30;;
77423;SDS011;66494;47.172;14.678;2023-08-06T00:10:07;0.47;;;0.20;;
77423;SDS011;66494;47.172;14.678;2023-08-06T00:11:07;3.50;;;1.00;;
77423;SDS011;66494;47.172;14.678;2023-08-06T00:12:08;3.47;;;1.20;;
77423;SDS011;66494;47.172;14.678;2023-08-06T00:13:08;3.53;;;1.42;;
77423;SDS011;66494;47.172;14.678;2023-08-06T00:14:08;2.22;;;0.90;;
77423;SDS011;66494;47.172;14.678;2023-08-06T00:15:09;6.95;;;2.25;;
77423;SDS011;66494;47.172;14.678;2023-08-06T00:16:12;8.07;;;3.20;;
77423;SDS011;66494;47.172;14.678;2023-08-06T00:17:12;4.78;;;2.20;;
77423;SDS011;66494;47.172;14.678;2023-08-06T00:18:13;2.78;;;0.77;;
77423;SDS011;66494;47.172;14.678;2023-08-06T00:19:13;0.77;;;0.30;;
77423;SDS011;66494;47.172;14.678;2023-08-06T00:20:13;0.50;;;0.32;;
77423;SDS011;66494;47.172;14.678;2023-08-06T00:21:13;0.10;;;0.10;;
77423;SDS011;66494;47.172;14.678;2023-08-06T00:22:14;0.38;;;0.32;;
77423;SDS011;66494;47.172;14.678;2023-08-06T00:23:14;0.20;;;0.20;;
77423;SDS011;66494;47.172;14.678;2023-08-06T00:24:14;0.32;;;0.20;;
77423;SDS011;66494;47.172;14.678;2023-08-06T00:25:15;0.55;;;0.10;;
77423;SDS011;66494;47.172;14.678;2023-08-06T00:26:15;0.80;;;0.25;;
77423;SDS011;66494;47.172;14.678;2023-08-06T00:27:15;0.55;;;0.20;;
77423;SDS011;66494;47.172;14.678;2023-08-06T00:28:15;3.42;;;0.40;;
77423;SDS011;66494;47.172;14.678;2023-08-06T00:29:16;1.58;;;0.20;;
77423;SDS011;66494;47.172;14.678;2023-08-06T00:30:16;0.63;;;0.20;;
77423;SDS011;66494;47.172;14.678;2023-08-06T00:31:16;0.30;;;0.30;;
77423;SDS011;66494;47.172;14.678;2023-08-06T00:32:17;1.13;;;0.20;;
77423;SDS011;66494;47.172;14.678;2023-08-06T00:33:17;0.32;;;0.20;;
77423;SDS011;66494;47.172;14.678;2023-08-06T00:34:17;0.45;;;0.30;;
77423;SDS011;66494;47.172;14.678;2023-08-06T00:35:17;0.45;;;0.20;;
77423;SDS011;66494;47.172;14.678;2023-08-06T00:36:18;0.63;;;0.40;;
77423;SDS011;66494;47.172;14.678;2023-08-06T00:37:18;0.20;;;0.20;;
77423;SDS011;66494;47.172;14.678;2023-08-06T00:38:18;0.95;;;0.40;;
77423;SDS011;66494;47.172;14.678;2023-08-06T00:39:19;0.65;;;0.10;;
77423;SDS011;66494;47.172;14.678;2023-08-06T00:40:20;1.17;;;0.30;;
77423;SDS011;66494;47.172;14.678;2023-08-06T00:41:20;0.82;;;0.22;;
77423;SDS011;66494;47.172;14.678;2023-08-06T00:42:20;1.40;;;0.60;;
77423;SDS011;66494;47.172;14.678;2023-08-06T00:43:21;2.85;;;0.75;;
77423;SDS011;66494;47.172;14.678;2023-08-06T00:44:21;3.10;;;0.73;;
77423;SDS011;66494;47.172;14.678;2023-08-06T00:45:21;0.68;;;0.30;;
77423;SDS011;66494;47.172;14.678;2023-08-06T00:47:23;0.90;;;0.30;;
77423;SDS011;66494;47.172;14.678;2023-08-06T00:48:23;3.40;;;1.30;;
77423;SDS011;66494;47.172;14.678;2023-08-06T00:49:24;3.33;;;1.15;;
77423;SDS011;66494;47.172;14.678;2023-08-06T00:50:24;7.88;;;1.77;;
77423;SDS011;66494;47.172;14.678;2023-08-06T00:51:24;5.50;;;1.75;;
77423;SDS011;66494;47.172;14.678;2023-08-06T00:52:25;6.25;;;1.35;;
77423;SDS011;66494;47.172;14.678;2023-08-06T00:53:25;3.13;;;1.42;;
77423;SDS011;66494;47.172;14.678;2023-08-06T00:54:26;2.92;;;0.85;;
77423;SDS011;66494;47.172;14.678;2023-08-06T00:55:27;4.95;;;1.45;;
77423;SDS011;66494;47.172;14.678;2023-08-06T00:56:27;3.60;;;1.70;;
77423;SDS011;66494;47.172;14.678;2023-08-06T00:57:28;2.70;;;0.77;;
77423;SDS011;66494;47.172;14.678;2023-08-06T00:58:28;6.50;;;0.70;;
77423;SDS011;66494;47.172;14.678;2023-08-06T00:59:29;1.88;;;0.43;;
77423;SDS011;66494;47.172;14.678;2023-08-06T01:00:30;0.88;;;0.47;;
77423;SDS011;66494;47.172;14.678;2023-08-06T01:01:30;1.83;;;0.60;;
77423;SDS011;66494;47.172;14.678;2023-08-06T01:02:30;0.20;;;0.20;;
77423;SDS011;66494;47.172;14.678;2023-08-06T01:03:30;0.43;;;0.35;;
77423;SDS011;66494;47.172;14.678;2023-08-06T01:04:31;0.38;;;0.20;;
77423;SDS011;66494;47.172;14.678;2023-08-06T01:05:33;0.20;;;0.13;;
77423;SDS011;66494;47.172;14.678;2023-08-06T01:06:44;1.25;;;0.20;;
77423;SDS011;66494;47.172;14.678;2023-08-06T01:07:51;0.85;;;0.30;;
77423;SDS011;66494;47.172;14.678;2023-08-06T01:09:01;3.20;;;0.40;;
77423;SDS011;66494;47.172;14.678;2023-08-06T01:12:32;1.30;;;0.28;;
77423;SDS011;66494;47.172;14.678;2023-08-06T01:15:46;0.38;;;0.20;;
77423;SDS011;66494;47.172;14.678;2023-08-06T01:16:48;0.20;;;0.17;;
77423;SDS011;66494;47.172;14.678;2023-08-06T01:17:49;0.30;;;0.20;;
77423;SDS011;66494;47.172;14.678;2023-08-06T01:18:49;2.20;;;0.20;;
77423;SDS011;66494;47.172;14.678;2023-08-06T01:19:50;0.90;;;0.03;;
77423;SDS011;66494;47.172;14.678;2023-08-06T01:20:50;0.98;;;0.40;;
77423;SDS011;66494;47.172;14.678;2023-08-06T01:21:50;0.10;;;0.10;;
77423;SDS011;66494;47.172;14.678;2023-08-06T01:22:50;0.20;;;0.10;;
77423;SDS011;66494;47.172;14.678;2023-08-06T01:23:50;0.73;;;0.25;;
77423;SDS011;66494;47.172;14.678;2023-08-06T01:24:51;0.25;;;0.20;;
77423;SDS011;66494;47.172;14.678;2023-08-06T01:26:55;0.77;;;0.17;;
77423;SDS011;66494;47.172;14.678;2023-08-06T01:27:59;1.55;;;0.20;;
77423;SDS011;66494;47.172;14.678;2023-08-06T01:29:11;0.30;;;0.20;;
77423;SDS011;66494;47.172;14.678;2023-08-06T01:30:15;0.43;;;0.43;;
77423;SDS011;66494;47.172;14.678;2023-08-06T01:31:18;0.15;;;0.13;;
77423;SDS011;66494;47.172;14.678;2023-08-06T01:32:21;0.68;;;0.32;;
77423;SDS011;66494;47.172;14.678;2023-08-06T01:33:22;1.23;;;0.20;;
77423;SDS011;66494;47.172;14.678;2023-08-06T01:34:24;0.43;;;0.20;;
77423;SDS011;66494;47.172;14.678;2023-08-06T01:35:26;0.80;;;0.10;;
77423;SDS011;66494;47.172;14.678;2023-08-06T01:36:27;0.15;;;0.15;;
77423;SDS011;66494;47.172;14.678;2023-08-06T01:37:28;0.20;;;0.15;;
77423;SDS011;66494;47.172;14.678;2023-08-06T01:38:28;0.20;;;0.10;;
77423;SDS011;66494;47.172;14.678;2023-08-06T01:39:28;0.05;;;0.00;;
77423;SDS011;66494;47.172;14.678;2023-08-06T01:40:29;3.25;;;0.30;;
77423;SDS011;66494;47.172;14.678;2023-08-06T01:41:29;2.45;;;0.30;;
77423;SDS011;66494;47.172;14.678;2023-08-06T01:42:30;0.75;;;0.30;;
77423;SDS011;66494;47.172;14.678;2023-08-06T01:43:30;0.20;;;0.10;;
77423;SDS011;66494;47.172;14.678;2023-08-06T01:44:30;1.02;;;0.10;;
77423;SDS011;66494;47.172;14.678;2023-08-06T01:45:30;0.32;;;0.20;;
77423;SDS011;66494;47.172;14.678;2023-08-06T01:46:31;0.60;;;0.30;;
77423;SDS011;66494;47.172;14.678;2023-08-06T01:47:31;0.95;;;0.20;;
77423;SDS011;66494;47.172;14.678;2023-08-06T01:48:31;0.40;;;0.20;;
77423;SDS011;66494;47.172;14.678;2023-08-06T01:49:31;0.52;;;0.20;;
77423;SDS011;66494;47.172;14.678;2023-08-06T01:50:31;1.40;;;0.55;;
77423;SDS011;66494;47.172;14.678;2023-08-06T01:51:32;1.30;;;0.30;;
77423;SDS011;66494;47.172;14.678;2023-08-06T01:52:32;1.98;;;0.22;;
77423;SDS011;66494;47.172;14.678;2023-08-06T01:53:33;0.63;;;0.25;;
77423;SDS011;66494;47.172;14.678;2023-08-06T01:54:33;0.30;;;0.20;;
77423;SDS011;66494;47.172;14.678;2023-08-06T01:55:33;1.92;;;0.30;;
77423;SDS011;66494;47.172;14.678;2023-08-06T01:56:33;0.10;;;0.10;;
77423;SDS011;66494;47.172;14.678;2023-08-06T01:57:34;3.42;;;0.35;;
77423;SDS011;66494;47.172;14.678;2023-08-06T01:58:34;1.85;;;0.43;;
77423;SDS011;66494;47.172;14.678;2023-08-06T01:59:34;0.30;;;0.20;;
77423;SDS011;66494;47.172;14.678;2023-08-06T02:00:34;0.68;;;0.30;;
77423;SDS011;66494;47.172;14.678;2023-08-06T02:01:35;0.60;;;0.20;;
77423;SDS011;66494;47.172;14.678;2023-08-06T02:02:35;0.50;;;0.30;;
77423;SDS011;66494;47.172;14.678;2023-08-06T02:03:35;1.30;;;0.28;;
77423;SDS011;66494;47.172;14.678;2023-08-06T02:04:35;0.38;;;0.20;;
77423;SDS011;66494;47.172;14.678;2023-08-06T02:05:36;0.60;;;0.25;;
77423;SDS011;66494;47.172;14.678;2023-08-06T02:06:36;1.02;;;0.40;;
77423;SDS011;66494;47.172;14.678;2023-08-06T02:07:36;0.40;;;0.35;;
77423;SDS011;66494;47.172;14.678;2023-08-06T02:08:36;2.13;;;0.35;;
77423;SDS011;66494;47.172;14.678;2023-08-06T02:09:37;2.45;;;0.52;;
77423;SDS011;66494;47.172;14.678;2023-08-06T02:10:37;0.65;;;0.30;;
77423;SDS011;66494;47.172;14.678;2023-08-06T02:11:37;0.55;;;0.40;;
77423;SDS011;66494;47.172;14.678;2023-08-06T02:12:37;0.52;;;0.28;;
77423;SDS011;66494;47.172;14.678;2023-08-06T02:13:37;0.70;;;0.22;;
77423;SDS011;66494;47.172;14.678;2023-08-06T02:14:38;0.35;;;0.28;;
77423;SDS011;66494;47.172;14.678;2023-08-06T02:15:44;0.25;;;0.17;;
77423;SDS011;66494;47.172;14.678;2023-08-06T02:16:45;0.30;;;0.30;;
77423;SDS011;66494;47.172;14.678;2023-08-06T02:17:45;0.13;;;0.13;;
77423;SDS011;66494;47.172;14.678;2023-08-06T02:18:46;0.35;;;0.20;;
77423;SDS011;66494;47.172;14.678;2023-08-06T02:19:46;1.23;;;0.30;;
77423;SDS011;66494;47.172;14.678;2023-08-06T02:21:04;1.98;;;0.20;;
77423;SDS011;66494;47.172;14.678;2023-08-06T02:22:04;0.40;;;0.30;;
77423;SDS011;66494;47.172;14.678;2023-08-06T02:23:05;0.20;;;0.10;;
77423;SDS011;66494;47.172;14.678;2023-08-06T02:24:05;1.77;;;0.20;;
77423;SDS011;66494;47.172;14.678;2023-08-06T02:25:05;1.30;;;0.28;;
77423;SDS011;66494;47.172;14.678;2023-08-06T02:26:06;0.65;;;0.20;;
77423;SDS011;66494;47.172;14.678;2023-08-06T02:27:06;0.40;;;0.20;;
77423;SDS011;66494;47.172;14.678;2023-08-06T02:28:06;0.20;;;0.10;;
77423;SDS011;66494;47.172;14.678;2023-08-06T02:29:06;0.68;;;0.30;;
77423;SDS011;66494;47.172;14.678;2023-08-06T02:30:07;0.93;;;0.20;;
77423;SDS011;66494;47.172;14.678;2023-08-06T02:31:07;0.88;;;0.20;;
77423;SDS011;66494;47.172;14.678;2023-08-06T02:32:07;0.95;;;0.40;;
77423;SDS011;66494;47.172;14.678;2023-08-06T02:33:08;2.83;;;0.60;;
77423;SDS011;66494;47.172;14.678;2023-08-06T02:34:08;0.57;;;0.22;;
77423;SDS011;66494;47.172;14.678;2023-08-06T02:35:08;2.08;;;0.32;;
77423;SDS011;66494;47.172;14.678;2023-08-06T02:36:08;0.45;;;0.20;;
77423;SDS011;66494;47.172;14.678;2023-08-06T02:37:09;2.70;;;0.22;;
77423;SDS011;66494;47.172;14.678;2023-08-06T02:38:09;0.28;;;0.28;;
77423;SDS011;66494;47.172;14.678;2023-08-06T02:39:09;0.30;;;0.20;;
77423;SDS011;66494;47.172;14.678;2023-08-06T02:40:09;0.57;;;0.20;;
77423;SDS011;66494;47.172;14.678;2023-08-06T02:41:10;0.22;;;0.20;;
77423;SDS011;66494;47.172;14.678;2023-08-06T02:42:10;2.33;;;0.20;;
77423;SDS011;66494;47.172;14.678;2023-08-06T02:43:10;0.13;;;0.13;;
77423;SDS011;66494;47.172;14.678;2023-08-06T02:44:10;0.28;;;0.15;;
77423;SDS011;66494;47.172;14.678;2023-08-06T02:45:11;0.50;;;0.30;;
77423;SDS011;66494;47.172;14.678;2023-08-06T02:46:11;1.17;;;0.22;;
77423;SDS011;66494;47.172;14.678;2023-08-06T02:47:11;1.25;;;0.57;;
77423;SDS011;66494;47.172;14.678;2023-08-06T02:48:11;0.40;;;0.20;;
77423;SDS011;66494;47.172;14.678;2023-08-06T02:49:12;1.10;;;0.22;;
77423;SDS011;66494;47.172;14.678;2023-08-06T02:50:12;0.20;;;0.10;;
77423;SDS011;66494;47.172;14.678;2023-08-06T02:51:12;0.40;;;0.30;;
77423;SDS011;66494;47.172;14.678;2023-08-06T02:52:12;0.80;;;0.50;;
77423;SDS011;66494;47.172;14.678;2023-08-06T02:53:13;0.70;;;0.30;;
77423;SDS011;66494;47.172;14.678;2023-08-06T02:54:13;0.50;;;0.20;;
77423;SDS011;66494;47.172;14.678;2023-08-06T02:55:13;0.43;;;0.20;;
77423;SDS011;66494;47.172;14.678;2023-08-06T02:56:13;0.43;;;0.10;;
77423;SDS011;66494;47.172;14.678;2023-08-06T02:57:14;0.73;;;0.52;;
77423;SDS011;66494;47.172;14.678;2023-08-06T02:58:14;0.40;;;0.20;;
77423;SDS011;66494;47.172;14.678;2023-08-06T02:59:15;0.40;;;0.20;;
77423;SDS011;66494;47.172;14.678;2023-08-06T03:00:15;0.28;;;0.25;;
77423;SDS011;66494;47.172;14.678;2023-08-06T03:01:15;0.63;;;0.30;;
77423;SDS011;66494;47.172;14.678;2023-08-06T03:02:15;0.30;;;0.20;;
77423;SDS011;66494;47.172;14.678;2023-08-06T03:03:16;0.40;;;0.15;;
77423;SDS011;66494;47.172;14.678;2023-08-06T03:04:16;0.65;;;0.20;;
77423;SDS011;66494;47.172;14.678;2023-08-06T03:05:18;0.47;;;0.22;;
77423;SDS011;66494;47.172;14.678;2023-08-06T03:06:18;0.20;;;0.10;;
77423;SDS011;66494;47.172;14.678;2023-08-06T03:07:18;0.50;;;0.20;;
77423;SDS011;66494;47.172;14.678;2023-08-06T03:08:18;0.55;;;0.32;;
77423;SDS011;66494;47.172;14.678;2023-08-06T03:09:22;0.88;;;0.20;;
77423;SDS011;66494;47.172;14.678;2023-08-06T03:10:22;0.38;;;0.20;;
77423;SDS011;66494;47.172;14.678;2023-08-06T03:11:22;0.20;;;0.20;;
77423;SDS011;66494;47.172;14.678;2023-08-06T03:12:23;1.02;;;0.22;;
77423;SDS011;66494;47.172;14.678;2023-08-06T03:13:23;0.57;;;0.20;;
77423;SDS011;66494;47.172;14.678;2023-08-06T03:14:23;0.65;;;0.38;;
77423;SDS011;66494;47.172;14.678;2023-08-06T03:15:23;0.30;;;0.20;;
77423;SDS011;66494;47.172;14.678;2023-08-06T03:16:24;4.60;;;0.50;;
77423;SDS011;66494;47.172;14.678;2023-08-06T03:17:24;0.65;;;0.65;;
77423;SDS011;66494;47.172;14.678;2023-08-06T03:18:25;0.28;;;0.10;;
77423;SDS011;66494;47.172;14.678;2023-08-06T03:19:28;0.80;;;0.10;;
77423;SDS011;66494;47.172;14.678;2023-08-06T03:20:28;1.50;;;0.30;;
77423;SDS011;66494;47.172;14.678;2023-08-06T03:21:28;0.20;;;0.10;;
77423;SDS011;66494;47.172;14.678;2023-08-06T03:22:29;0.25;;;0.15;;
77423;SDS011;66494;47.172;14.678;2023-08-06T03:23:29;0.32;;;0.20;;
77423;SDS011;66494;47.172;14.678;2023-08-06T03:24:29;0.20;;;0.20;;
77423;SDS011;66494;47.172;14.678;2023-08-06T03:25:29;1.05;;;0.20;;
77423;SDS011;66494;47.172;14.678;2023-08-06T03:26:30;0.40;;;0.25;;
77423;SDS011;66494;47.172;14.678;2023-08-06T03:27:30;0.15;;;0.10;;
77423;SDS011;66494;47.172;14.678;2023-08-06T03:28:30;0.85;;;0.22;;
77423;SDS011;66494;47.172;14.678;2023-08-06T03:29:30;0.77;;;0.10;;
77423;SDS011;66494;47.172;14.678;2023-08-06T03:30:30;0.38;;;0.20;;
77423;SDS011;66494;47.172;14.678;2023-08-06T03:31:31;3.30;;;0.20;;
77423;SDS011;66494;47.172;14.678;2023-08-06T03:32:31;1.77;;;0.20;;
77423;SDS011;66494;47.172;14.678;2023-08-06T03:33:31;0.20;;;0.10;;
77423;SDS011;66494;47.172;14.678;2023-08-06T03:34:32;0.55;;;0.40;;
77423;SDS011;66494;47.172;14.678;2023-08-06T03:35:32;0.40;;;0.20;;
77423;SDS011;66494;47.172;14.678;2023-08-06T03:36:32;1.08;;;0.28;;
77423;SDS011;66494;47.172;14.678;2023-08-06T03:37:32;0.85;;;0.20;;
77423;SDS011;66494;47.172;14.678;2023-08-06T03:38:32;0.35;;;0.28;;
77423;SDS011;66494;47.172;14.678;2023-08-06T03:39:33;0.38;;;0.10;;
77423;SDS011;66494;47.172;14.678;2023-08-06T03:40:34;0.50;;;0.20;;
77423;SDS011;66494;47.172;14.678;2023-08-06T03:41:34;0.65;;;0.38;;
77423;SDS011;66494;47.172;14.678;2023-08-06T03:42:35;2.42;;;0.35;;
77423;SDS011;66494;47.172;14.678;2023-08-06T03:43:35;2.83;;;0.77;;
77423;SDS011;66494;47.172;14.678;2023-08-06T03:44:35;2.10;;;0.10;;
77423;SDS011;66494;47.172;14.678;2023-08-06T03:45:35;0.50;;;0.30;;
77423;SDS011;66494;47.172;14.678;2023-08-06T03:46:36;0.20;;;0.20;;
77423;SDS011;66494;47.172;14.678;2023-08-06T03:47:36;1.85;;;0.90;;
77423;SDS011;66494;47.172;14.678;2023-08-06T03:48:36;0.30;;;0.20;;
77423;SDS011;66494;47.172;14.678;2023-08-06T03:49:36;2.03;;;0.35;;
77423;SDS011;66494;47.172;14.678;2023-08-06T03:50:37;1.08;;;0.20;;
77423;SDS011;66494;47.172;14.678;2023-08-06T03:52:38;1.00;;;0.37;;
77423;SDS011;66494;47.172;14.678;2023-08-06T03:53:38;1.13;;;0.38;;
77423;SDS011;66494;47.172;14.678;2023-08-06T03:54:38;1.33;;;0.30;;
77423;SDS011;66494;47.172;14.678;2023-08-06T03:55:39;1.30;;;0.22;;
77423;SDS011;66494;47.172;14.678;2023-08-06T03:56:39;0.32;;;0.13;;
77423;SDS011;66494;47.172;14.678;2023-08-06T03:57:39;0.45;;;0.20;;
77423;SDS011;66494;47.172;14.678;2023-08-06T03:58:39;0.25;;;0.25;;
77423;SDS011;66494;47.172;14.678;2023-08-06T03:59:40;0.38;;;0.20;;
77423;SDS011;66494;47.172;14.678;2023-08-06T04:00:40;0.38;;;0.20;;
77423;SDS011;66494;47.172;14.678;2023-08-06T04:01:40;0.75;;;0.50;;
77423;SDS011;66494;47.172;14.678;2023-08-06T04:02:40;3.10;;;0.32;;
77423;SDS011;66494;47.172;14.678;2023-08-06T04:03:41;1.65;;;0.30;;
77423;SDS011;66494;47.172;14.678;2023-08-06T04:04:41;3.28;;;0.35;;
77423;SDS011;66494;47.172;14.678;2023-08-06T04:05:41;0.30;;;0.20;;
77423;SDS011;66494;47.172;14.678;2023-08-06T04:06:41;0.22;;;0.10;;
77423;SDS011;66494;47.172;14.678;2023-08-06T04:07:42;0.40;;;0.20;;
77423;SDS011;66494;47.172;14.678;2023-08-06T04:08:42;0.13;;;0.13;;
77423;SDS011;66494;47.172;14.678;2023-08-06T04:09:55;0.82;;;0.30;;
77423;SDS011;66494;47.172;14.678;2023-08-06T04:10:55;0.30;;;0.20;;
77423;SDS011;66494;47.172;14.678;2023-08-06T04:11:55;0.50;;;0.20;;
77423;SDS011;66494;47.172;14.678;2023-08-06T04:12:56;1.83;;;0.28;;
77423;SDS011;66494;47.172;14.678;2023-08-06T04:13:56;0.73;;;0.32;;
77423;SDS011;66494;47.172;14.678;2023-08-06T04:14:57;0.20;;;0.10;;
77423;SDS011;66494;47.172;14.678;2023-08-06T04:16:58;0.60;;;0.30;;
77423;SDS011;66494;47.172;14.678;2023-08-06T04:17:58;0.45;;;0.25;;
77423;SDS011;66494;47.172;14.678;2023-08-06T04:18:59;0.20;;;0.20;;
77423;SDS011;66494;47.172;14.678;2023-08-06T04:19:59;0.75;;;0.40;;
77423;SDS011;66494;47.172;14.678;2023-08-06T04:20:59;0.68;;;0.30;;
77423;SDS011;66494;47.172;14.678;2023-08-06T04:22:01;0.95;;;0.20;;
77423;SDS011;66494;47.172;14.678;2023-08-06T04:23:05;2.50;;;0.30;;
77423;SDS011;66494;47.172;14.678;2023-08-06T04:24:05;1.38;;;0.30;;
77423;SDS011;66494;47.172;14.678;2023-08-06T04:25:06;0.65;;;0.20;;
77423;SDS011;66494;47.172;14.678;2023-08-06T04:26:06;0.10;;;0.10;;
77423;SDS011;66494;47.172;14.678;2023-08-06T04:27:06;0.68;;;0.28;;
77423;SDS011;66494;47.172;14.678;2023-08-06T04:29:07;0.87;;;0.20;;
77423;SDS011;66494;47.172;14.678;2023-08-06T04:30:08;0.93;;;0.57;;
77423;SDS011;66494;47.172;14.678;2023-08-06T04:31:09;3.15;;;0.38;;
77423;SDS011;66494;47.172;14.678;2023-08-06T04:32:09;1.08;;;0.20;;
77423;SDS011;66494;47.172;14.678;2023-08-06T04:33:10;0.60;;;0.20;;
77423;SDS011;66494;47.172;14.678;2023-08-06T04:34:10;1.52;;;0.30;;
77423;SDS011;66494;47.172;14.678;2023-08-06T04:35:11;0.20;;;0.20;;
77423;SDS011;66494;47.172;14.678;2023-08-06T04:36:11;1.00;;;0.20;;
77423;SDS011;66494;47.172;14.678;2023-08-06T04:37:12;0.40;;;0.30;;
77423;SDS011;66494;47.172;14.678;2023-08-06T04:38:12;0.50;;;0.15;;
77423;SDS011;66494;47.172;14.678;2023-08-06T04:39:12;0.25;;;0.20;;
77423;SDS011;66494;47.172;14.678;2023-08-06T04:40:12;0.82;;;0.35;;
77423;SDS011;66494;47.172;14.678;2023-08-06T04:41:13;0.40;;;0.20;;
77423;SDS011;66494;47.172;14.678;2023-08-06T04:42:13;0.52;;;0.20;;
77423;SDS011;66494;47.172;14.678;2023-08-06T04:43:14;0.63;;;0.15;;
77423;SDS011;66494;47.172;14.678;2023-08-06T04:44:14;1.38;;;0.40;;
77423;SDS011;66494;47.172;14.678;2023-08-06T04:45:14;0.50;;;0.28;;
77423;SDS011;66494;47.172;14.678;2023-08-06T04:46:14;0.85;;;0.45;;
77423;SDS011;66494;47.172;14.678;2023-08-06T04:47:14;3.58;;;1.63;;
77423;SDS011;66494;47.172;14.678;2023-08-06T04:48:15;0.47;;;0.20;;
77423;SDS011;66494;47.172;14.678;2023-08-06T04:49:15;1.75;;;0.20;;
77423;SDS011;66494;47.172;14.678;2023-08-06T04:50:15;0.52;;;0.20;;
77423;SDS011;66494;47.172;14.678;2023-08-06T04:51:16;0.15;;;0.13;;
77423;SDS011;66494;47.172;14.678;2023-08-06T04:52:16;0.50;;;0.35;;
77423;SDS011;66494;47.172;14.678;2023-08-06T04:53:16;0.50;;;0.50;;
77423;SDS011;66494;47.172;14.678;2023-08-06T04:54:16;0.10;;;0.10;;
77423;SDS011;66494;47.172;14.678;2023-08-06T04:55:16;1.02;;;0.20;;
77423;SDS011;66494;47.172;14.678;2023-08-06T04:56:17;0.82;;;0.20;;
77423;SDS011;66494;47.172;14.678;2023-08-06T04:57:17;0.40;;;0.30;;
77423;SDS011;66494;47.172;14.678;2023-08-06T04:58:17;0.73;;;0.73;;
77423;SDS011;66494;47.172;14.678;2023-08-06T04:59:17;2.58;;;0.13;;
77423;SDS011;66494;47.172;14.678;2023-08-06T05:00:18;2.45;;;0.30;;
77423;SDS011;66494;47.172;14.678;2023-08-06T05:01:18;0.38;;;0.38;;
77423;SDS011;66494;47.172;14.678;2023-08-06T05:02:18;0.55;;;0.30;;
77423;SDS011;66494;47.172;14.678;2023-08-06T05:03:19;0.70;;;0.22;;
77423;SDS011;66494;47.172;14.678;2023-08-06T05:04:19;0.55;;;0.20;;
77423;SDS011;66494;47.172;14.678;2023-08-06T05:05:19;0.32;;;0.20;;
77423;SDS011;66494;47.172;14.678;2023-08-06T05:06:19;0.10;;;0.10;;
77423;SDS011;66494;47.172;14.678;2023-08-06T05:07:19;0.22;;;0.20;;
77423;SDS011;66494;47.172;14.678;2023-08-06T05:08:20;0.30;;;0.20;;
77423;SDS011;66494;47.172;14.678;2023-08-06T05:09:20;13.43;;;1.27;;
77423;SDS011;66494;47.172;14.678;2023-08-06T05:10:20;0.30;;;0.20;;
77423;SDS011;66494;47.172;14.678;2023-08-06T05:11:20;0.98;;;0.17;;
77423;SDS011;66494;47.172;14.678;2023-08-06T05:12:20;0.60;;;0.38;;
77423;SDS011;66494;47.172;14.678;2023-08-06T05:13:21;0.30;;;0.30;;
77423;SDS011;66494;47.172;14.678;2023-08-06T05:14:21;0.20;;;0.20;;
77423;SDS011;66494;47.172;14.678;2023-08-06T05:15:21;0.20;;;0.20;;
77423;SDS011;66494;47.172;14.678;2023-08-06T05:16:21;0.38;;;0.30;;
77423;SDS011;66494;47.172;14.678;2023-08-06T05:17:22;0.30;;;0.28;;
77423;SDS011;66494;47.172;14.678;2023-08-06T05:19:23;0.50;;;0.27;;
77423;SDS011;66494;47.172;14.678;2023-08-06T05:20:23;3.05;;;0.28;;
77423;SDS011;66494;47.172;14.678;2023-08-06T05:21:23;0.52;;;0.30;;
77423;SDS011;66494;47.172;14.678;2023-08-06T05:22:24;2.97;;;0.20;;
77423;SDS011;66494;47.172;14.678;2023-08-06T05:23:24;1.48;;;0.32;;
77423;SDS011;66494;47.172;14.678;2023-08-06T05:24:24;1.25;;;0.20;;
77423;SDS011;66494;47.172;14.678;2023-08-06T05:25:24;0.20;;;0.17;;
77423;SDS011;66494;47.172;14.678;2023-08-06T05:26:25;0.70;;;0.40;;
77423;SDS011;66494;47.172;14.678;2023-08-06T05:27:25;2.05;;;0.30;;
77423;SDS011;66494;47.172;14.678;2023-08-06T05:28:25;0.38;;;0.10;;
77423;SDS011;66494;47.172;14.678;2023-08-06T05:29:25;0.57;;;0.35;;
77423;SDS011;66494;47.172;14.678;2023-08-06T05:30:27;1.30;;;0.28;;
77423;SDS011;66494;47.172;14.678;2023-08-06T05:31:27;0.82;;;0.28;;
77423;SDS011;66494;47.172;14.678;2023-08-06T05:32:28;0.45;;;0.40;;
77423;SDS011;66494;47.172;14.678;2023-08-06T05:33:29;0.47;;;0.10;;
77423;SDS011;66494;47.172;14.678;2023-08-06T05:35:29;0.30;;;0.10;;
77423;SDS011;66494;47.172;14.678;2023-08-06T05:36:29;1.02;;;0.30;;
77423;SDS011;66494;47.172;14.678;2023-08-06T05:37:30;2.17;;;0.20;;
77423;SDS011;66494;47.172;14.678;2023-08-06T05:38:30;0.35;;;0.20;;
77423;SDS011;66494;47.172;14.678;2023-08-06T05:39:30;0.50;;;0.20;;
77423;SDS011;66494;47.172;14.678;2023-08-06T05:41:30;3.75;;;0.20;;
77423;SDS011;66494;47.172;14.678;2023-08-06T05:42:31;0.30;;;0.20;;
77423;SDS011;66494;47.172;14.678;2023-08-06T05:43:31;0.22;;;0.20;;
77423;SDS011;66494;47.172;14.678;2023-08-06T05:44:31;2.05;;;0.30;;
77423;SDS011;66494;47.172;14.678;2023-08-06T05:45:31;0.30;;;0.10;;
77423;SDS011;66494;47.172;14.678;2023-08-06T05:46:32;0.82;;;0.20;;
77423;SDS011;66494;47.172;14.678;2023-08-06T05:47:32;0.40;;;0.17;;
77423;SDS011;66494;47.172;14.678;2023-08-06T05:48:32;0.63;;;0.15;;
77423;SDS011;66494;47.172;14.678;2023-08-06T05:49:32;0.70;;;0.15;;
77423;SDS011;66494;47.172;14.678;2023-08-06T05:50:32;0.45;;;0.22;;
77423;SDS011;66494;47.172;14.678;2023-08-06T05:51:33;0.20;;;0.10;;
77423;SDS011;66494;47.172;14.678;2023-08-06T05:52:33;0.20;;;0.10;;
77423;SDS011;66494;47.172;14.678;2023-08-06T05:53:33;0.88;;;0.20;;
77423;SDS011;66494;47.172;14.678;2023-08-06T05:54:33;0.30;;;0.25;;
77423;SDS011;66494;47.172;14.678;2023-08-06T05:55:34;1.55;;;0.32;;
77423;SDS011;66494;47.172;14.678;2023-08-06T05:56:34;2.55;;;0.75;;
77423;SDS011;66494;47.172;14.678;2023-08-06T05:57:34;0.52;;;0.28;;
77423;SDS011;66494;47.172;14.678;2023-08-06T05:58:34;0.57;;;0.20;;
77423;SDS011;66494;47.172;14.678;2023-08-06T05:59:35;5.32;;;0.60;;
77423;SDS011;66494;47.172;14.678;2023-08-06T06:00:35;0.30;;;0.20;;
77423;SDS011;66494;47.172;14.678;2023-08-06T06:01:35;0.32;;;0.28;;
77423;SDS011;66494;47.172;14.678;2023-08-06T06:02:35;1.75;;;0.10;;
77423;SDS011;66494;47.172;14.678;2023-08-06T06:03:35;7.10;;;0.30;;
77423;SDS011;66494;47.172;14.678;2023-08-06T06:04:36;1.05;;;0.30;;
77423;SDS011;66494;47.172;14.678;2023-08-06T06:05:37;0.50;;;0.22;;
77423;SDS011;66494;47.172;14.678;2023-08-06T06:06:38;0.68;;;0.15;;
77423;SDS011;66494;47.172;14.678;2023-08-06T06:07:39;1.52;;;0.65;;
77423;SDS011;66494;47.172;14.678;2023-08-06T06:08:39;0.95;;;0.55;;
77423;SDS011;66494;47.172;14.678;2023-08-06T06:09:39;1.58;;;0.68;;
77423;SDS011;66494;47.172;14.678;2023-08-06T06:10:40;1.27;;;0.60;;
77423;SDS011;66494;47.172;14.678;2023-08-06T06:11:40;2.60;;;0.52;;